sensor_id;sensor_type;location;lat;lon;timestamp;pressure;altitude;pressure_sealevel;temperature;humidity
58622;BME280;44389;51.578;5.456;2024-01-10T00:00:13;102963.72;;;-6.89;69.79
58622;BME280;44389;51.578;5.456;2024-01-10T00:02:38;102964.22;;;-6.92;70.80
58622;BME280;44389;51.578;5.456;2024-01-10T00:05:04;102953.84;;;-6.82;70.76
58622;BME280;44389;51.578;5.456;2024-01-10T00:07:29;102953.13;;;-6.81;70.44
58622;BME280;44389;51.578;5.456;2024-01-10T00:09:54;102952.50;;;-6.86;70.20
58622;BME280;44389;51.578;5.456;2024-01-10T00:12:20;102945.09;;;-6.91;70.06
58622;BME280;44389;51.578;5.456;2024-01-10T00:14:46;102945.50;;;-6.88;70.23
58622;BME280;44389;51.578;5.456;2024-01-10T00:17:11;102944.94;;;-6.80;70.29
58622;BME280;44389;51.578;5.456;2024-01-10T00:19:36;102941.69;;;-6.79;69.37
58622;BME280;44389;51.578;5.456;2024-01-10T00:22:02;102939.38;;;-6.90;68.73
58622;BME280;44389;51.578;5.456;2024-01-10T00:24:27;102942.69;;;-6.84;68.10
58622;BME280;44389;51.578;5.456;2024-01-10T00:26:52;102933.44;;;-6.91;68.39
58622;BME280;44389;51.578;5.456;2024-01-10T00:29:18;102939.91;;;-6.80;68.70
58622;BME280;44389;51.578;5.456;2024-01-10T00:31:43;102938.97;;;-6.93;68.24
58622;BME280;44389;51.578;5.456;2024-01-10T00:34:08;102931.97;;;-6.83;69.17
58622;BME280;44389;51.578;5.456;2024-01-10T00:36:33;102936.25;;;-6.95;69.14
58622;BME280;44389;51.578;5.456;2024-01-10T00:38:59;102940.19;;;-6.84;69.60
58622;BME280;44389;51.578;5.456;2024-01-10T00:41:24;102937.19;;;-6.82;69.16
58622;BME280;44389;51.578;5.456;2024-01-10T00:43:49;102931.47;;;-6.81;69.66
58622;BME280;44389;51.578;5.456;2024-01-10T00:46:15;102930.25;;;-6.90;69.13
58622;BME280;44389;51.578;5.456;2024-01-10T00:48:40;102931.44;;;-6.93;70.02
58622;BME280;44389;51.578;5.456;2024-01-10T00:51:05;102930.06;;;-6.91;69.32
58622;BME280;44389;51.578;5.456;2024-01-10T00:53:34;102931.13;;;-6.89;70.08
58622;BME280;44389;51.578;5.456;2024-01-10T00:56:00;102931.47;;;-6.81;69.31
58622;BME280;44389;51.578;5.456;2024-01-10T00:58:25;102926.13;;;-6.89;68.69
58622;BME280;44389;51.578;5.456;2024-01-10T01:00:50;102928.75;;;-6.82;69.44
58622;BME280;44389;51.578;5.456;2024-01-10T01:03:15;102919.09;;;-6.92;69.22
58622;BME280;44389;51.578;5.456;2024-01-10T01:05:41;102926.25;;;-6.82;69.60
58622;BME280;44389;51.578;5.456;2024-01-10T01:08:06;102924.63;;;-6.95;70.00
58622;BME280;44389;51.578;5.456;2024-01-10T01:10:32;102918.34;;;-6.85;70.57
58622;BME280;44389;51.578;5.456;2024-01-10T01:12:57;102913.81;;;-6.88;69.86
58622;BME280;44389;51.578;5.456;2024-01-10T01:15:22;102919.69;;;-7.00;69.67
58622;BME280;44389;51.578;5.456;2024-01-10T01:17:48;102913.78;;;-7.01;70.22
58622;BME280;44389;51.578;5.456;2024-01-10T01:20:13;102917.97;;;-7.07;70.20
58622;BME280;44389;51.578;5.456;2024-01-10T01:22:38;102919.31;;;-7.03;71.52
58622;BME280;44389;51.578;5.456;2024-01-10T01:25:04;102925.22;;;-7.03;70.70
58622;BME280;44389;51.578;5.456;2024-01-10T01:27:29;102918.72;;;-6.95;70.59
58622;BME280;44389;51.578;5.456;2024-01-10T01:29:54;102918.91;;;-6.93;70.19
58622;BME280;44389;51.578;5.456;2024-01-10T01:32:20;102916.81;;;-6.90;70.99
58622;BME280;44389;51.578;5.456;2024-01-10T01:34:45;102922.41;;;-6.99;70.88
58622;BME280;44389;51.578;5.456;2024-01-10T01:37:10;102918.56;;;-7.15;72.40
58622;BME280;44389;51.578;5.456;2024-01-10T01:39:36;102922.41;;;-6.99;72.30
58622;BME280;44389;51.578;5.456;2024-01-10T01:42:01;102922.59;;;-7.10;72.27
58622;BME280;44389;51.578;5.456;2024-01-10T01:44:27;102918.03;;;-7.25;72.91
58622;BME280;44389;51.578;5.456;2024-01-10T01:46:52;102909.09;;;-7.23;75.71
58622;BME280;44389;51.578;5.456;2024-01-10T01:49:18;102910.06;;;-7.10;74.42
58622;BME280;44389;51.578;5.456;2024-01-10T01:51:43;102909.63;;;-7.13;73.55
58622;BME280;44389;51.578;5.456;2024-01-10T01:54:09;102907.22;;;-7.19;75.32
58622;BME280;44389;51.578;5.456;2024-01-10T01:56:38;102912.09;;;-7.07;74.78
58622;BME280;44389;51.578;5.456;2024-01-10T01:59:04;102908.94;;;-7.12;73.78
58622;BME280;44389;51.578;5.456;2024-01-10T02:01:30;102912.47;;;-7.04;74.04
58622;BME280;44389;51.578;5.456;2024-01-10T02:03:55;102908.56;;;-7.15;74.64
58622;BME280;44389;51.578;5.456;2024-01-10T02:06:21;102918.69;;;-7.08;74.91
58622;BME280;44389;51.578;5.456;2024-01-10T02:08:46;102909.25;;;-7.16;74.34
58622;BME280;44389;51.578;5.456;2024-01-10T02:11:12;102907.53;;;-7.23;74.96
58622;BME280;44389;51.578;5.456;2024-01-10T02:13:37;102905.56;;;-7.31;75.29
58622;BME280;44389;51.578;5.456;2024-01-10T02:16:03;102906.03;;;-7.15;74.87
58622;BME280;44389;51.578;5.456;2024-01-10T02:18:30;102902.78;;;-7.27;75.14
58622;BME280;44389;51.578;5.456;2024-01-10T02:20:55;102908.56;;;-7.15;75.67
58622;BME280;44389;51.578;5.456;2024-01-10T02:23:20;102904.19;;;-7.29;77.05
58622;BME280;44389;51.578;5.456;2024-01-10T02:25:46;102891.47;;;-7.31;76.71
58622;BME280;44389;51.578;5.456;2024-01-10T02:28:11;102901.88;;;-7.28;76.96
58622;BME280;44389;51.578;5.456;2024-01-10T02:30:37;102908.81;;;-7.19;77.08
58622;BME280;44389;51.578;5.456;2024-01-10T02:33:02;102895.75;;;-7.30;77.59
58622;BME280;44389;51.578;5.456;2024-01-10T02:35:27;102903.81;;;-7.19;77.13
58622;BME280;44389;51.578;5.456;2024-01-10T02:37:54;102903.75;;;-7.32;78.39
58622;BME280;44389;51.578;5.456;2024-01-10T02:40:20;102903.69;;;-7.26;77.98
58622;BME280;44389;51.578;5.456;2024-01-10T02:42:45;102894.66;;;-7.32;79.33
58622;BME280;44389;51.578;5.456;2024-01-10T02:45:11;102902.78;;;-7.27;79.80
58622;BME280;44389;51.578;5.456;2024-01-10T02:47:36;102889.56;;;-7.26;78.60
58622;BME280;44389;51.578;5.456;2024-01-10T02:50:02;102885.03;;;-7.29;77.67
58622;BME280;44389;51.578;5.456;2024-01-10T02:52:28;102883.22;;;-7.30;79.29
58622;BME280;44389;51.578;5.456;2024-01-10T02:54:53;102888.38;;;-7.22;78.83
58622;BME280;44389;51.578;5.456;2024-01-10T02:57:18;102885.19;;;-7.21;78.52
58622;BME280;44389;51.578;5.456;2024-01-10T02:59:44;102876.72;;;-7.22;78.66
58622;BME280;44389;51.578;5.456;2024-01-10T03:02:09;102874.75;;;-7.12;79.31
58622;BME280;44389;51.578;5.456;2024-01-10T03:04:34;102880.00;;;-7.10;79.19
58622;BME280;44389;51.578;5.456;2024-01-10T03:06:59;102875.47;;;-7.13;79.71
58622;BME280;44389;51.578;5.456;2024-01-10T03:09:25;102874.47;;;-7.20;79.73
58622;BME280;44389;51.578;5.456;2024-01-10T03:11:50;102868.94;;;-7.18;79.93
58622;BME280;44389;51.578;5.456;2024-01-10T03:14:15;102869.84;;;-7.17;79.32
58622;BME280;44389;51.578;5.456;2024-01-10T03:16:41;102866.50;;;-7.23;79.21
58622;BME280;44389;51.578;5.456;2024-01-10T03:19:06;102867.03;;;-7.13;79.25
58622;BME280;44389;51.578;5.456;2024-01-10T03:21:31;102866.22;;;-7.19;78.63
58622;BME280;44389;51.578;5.456;2024-01-10T03:23:58;102869.03;;;-7.23;78.57
58622;BME280;44389;51.578;5.456;2024-01-10T03:26:24;102865.81;;;-7.22;79.28
58622;BME280;44389;51.578;5.456;2024-01-10T03:28:50;102865.22;;;-7.14;79.02
58622;BME280;44389;51.578;5.456;2024-01-10T03:31:16;102864.00;;;-7.23;78.68
58622;BME280;44389;51.578;5.456;2024-01-10T03:33:41;102850.19;;;-7.14;79.15
58622;BME280;44389;51.578;5.456;2024-01-10T03:36:09;102853.97;;;-7.23;80.41
58622;BME280;44389;51.578;5.456;2024-01-10T03:38:35;102858.09;;;-7.24;80.06
58622;BME280;44389;51.578;5.456;2024-01-10T03:41:00;102853.16;;;-7.30;80.07
58622;BME280;44389;51.578;5.456;2024-01-10T03:43:25;102850.88;;;-7.28;79.53
58622;BME280;44389;51.578;5.456;2024-01-10T03:45:51;102855.66;;;-7.30;79.84
58622;BME280;44389;51.578;5.456;2024-01-10T03:48:16;102848.69;;;-7.19;79.78
58622;BME280;44389;51.578;5.456;2024-01-10T03:50:41;102852.59;;;-7.21;79.80
58622;BME280;44389;51.578;5.456;2024-01-10T03:53:07;102846.59;;;-7.16;79.24
58622;BME280;44389;51.578;5.456;2024-01-10T03:55:32;102839.66;;;-7.24;80.22
58622;BME280;44389;51.578;5.456;2024-01-10T03:57:57;102836.75;;;-7.28;80.87
58622;BME280;44389;51.578;5.456;2024-01-10T04:00:23;102837.25;;;-7.17;81.81
58622;BME280;44389;51.578;5.456;2024-01-10T04:02:48;102822.41;;;-7.29;82.94
58622;BME280;44389;51.578;5.456;2024-01-10T04:05:13;102826.72;;;-7.28;82.79
58622;BME280;44389;51.578;5.456;2024-01-10T04:07:42;102821.50;;;-7.29;83.24
58622;BME280;44389;51.578;5.456;2024-01-10T04:10:09;102824.75;;;-7.17;81.40
58622;BME280;44389;51.578;5.456;2024-01-10T04:12:36;102827.53;;;-7.21;82.30
58622;BME280;44389;51.578;5.456;2024-01-10T04:15:01;102823.31;;;-7.28;81.72
58622;BME280;44389;51.578;5.456;2024-01-10T04:17:26;102826.56;;;-7.16;81.57
58622;BME280;44389;51.578;5.456;2024-01-10T04:19:52;102820.31;;;-7.25;82.06
58622;BME280;44389;51.578;5.456;2024-01-10T04:22:17;102817.41;;;-7.16;82.23
58622;BME280;44389;51.578;5.456;2024-01-10T04:24:42;102819.22;;;-7.28;82.25
58622;BME280;44389;51.578;5.456;2024-01-10T04:27:08;102810.81;;;-7.15;82.33
58622;BME280;44389;51.578;5.456;2024-01-10T04:29:33;102815.81;;;-7.28;81.60
58622;BME280;44389;51.578;5.456;2024-01-10T04:31:58;102819.22;;;-7.15;81.57
58622;BME280;44389;51.578;5.456;2024-01-10T04:34:23;102811.69;;;-7.28;81.63
58622;BME280;44389;51.578;5.456;2024-01-10T04:36:49;102812.91;;;-7.18;82.01
58622;BME280;44389;51.578;5.456;2024-01-10T04:39:15;102812.50;;;-7.21;81.27
58622;BME280;44389;51.578;5.456;2024-01-10T04:41:40;102816.91;;;-7.13;80.97
58622;BME280;44389;51.578;5.456;2024-01-10T04:44:05;102815.53;;;-7.11;80.66
58622;BME280;44389;51.578;5.456;2024-01-10T04:46:31;102817.81;;;-7.25;81.20
58622;BME280;44389;51.578;5.456;2024-01-10T04:48:56;102820.72;;;-7.22;80.82
58622;BME280;44389;51.578;5.456;2024-01-10T04:51:21;102821.03;;;-7.14;81.12
58622;BME280;44389;51.578;5.456;2024-01-10T04:53:47;102816.00;;;-7.26;81.66
58622;BME280;44389;51.578;5.456;2024-01-10T04:56:12;102814.69;;;-7.30;82.18
58622;BME280;44389;51.578;5.456;2024-01-10T04:58:38;102822.94;;;-7.18;81.68
58622;BME280;44389;51.578;5.456;2024-01-10T05:01:03;102810.19;;;-7.20;81.49
58622;BME280;44389;51.578;5.456;2024-01-10T05:03:28;102813.56;;;-7.32;80.93
58622;BME280;44389;51.578;5.456;2024-01-10T05:05:54;102809.19;;;-7.28;80.77
58622;BME280;44389;51.578;5.456;2024-01-10T05:08:19;102813.38;;;-7.34;82.30
58622;BME280;44389;51.578;5.456;2024-01-10T05:10:46;102812.50;;;-7.21;82.13
58622;BME280;44389;51.578;5.456;2024-01-10T05:13:12;102805.56;;;-7.30;82.04
58622;BME280;44389;51.578;5.456;2024-01-10T05:15:37;102800.78;;;-7.28;83.27
58622;BME280;44389;51.578;5.456;2024-01-10T05:18:03;102807.00;;;-7.19;82.32
58622;BME280;44389;51.578;5.456;2024-01-10T05:20:28;102806.88;;;-7.26;81.68
58622;BME280;44389;51.578;5.456;2024-01-10T05:22:53;102807.88;;;-7.18;82.55
58622;BME280;44389;51.578;5.456;2024-01-10T05:25:19;102816.09;;;-7.19;82.29
58622;BME280;44389;51.578;5.456;2024-01-10T05:27:44;102806.78;;;-7.33;81.44
58622;BME280;44389;51.578;5.456;2024-01-10T05:30:09;102807.50;;;-7.21;81.46
58622;BME280;44389;51.578;5.456;2024-01-10T05:32:37;102809.47;;;-7.32;81.36
58622;BME280;44389;51.578;5.456;2024-01-10T05:35:03;102810.69;;;-7.22;82.15
58622;BME280;44389;51.578;5.456;2024-01-10T05:37:30;102801.44;;;-7.42;82.58
58622;BME280;44389;51.578;5.456;2024-01-10T05:39:55;102801.53;;;-7.35;83.67
58622;BME280;44389;51.578;5.456;2024-01-10T05:42:20;102807.78;;;-7.38;82.45
58622;BME280;44389;51.578;5.456;2024-01-10T05:44:45;102806.94;;;-7.45;82.52
58622;BME280;44389;51.578;5.456;2024-01-10T05:47:11;102817.88;;;-7.31;82.76
58622;BME280;44389;51.578;5.456;2024-01-10T05:49:36;102816.56;;;-7.35;82.33
58622;BME280;44389;51.578;5.456;2024-01-10T05:52:01;102812.19;;;-7.30;82.63
58622;BME280;44389;51.578;5.456;2024-01-10T05:54:27;102819.19;;;-7.40;82.59
58622;BME280;44389;51.578;5.456;2024-01-10T05:56:52;102821.78;;;-7.46;83.44
58622;BME280;44389;51.578;5.456;2024-01-10T05:59:17;102811.22;;;-7.56;83.93
58622;BME280;44389;51.578;5.456;2024-01-10T06:01:43;102815.56;;;-7.42;84.75
58622;BME280;44389;51.578;5.456;2024-01-10T06:04:08;102813.09;;;-7.61;85.65
58622;BME280;44389;51.578;5.456;2024-01-10T06:06:33;102809.59;;;-7.69;86.86
58622;BME280;44389;51.578;5.456;2024-01-10T06:08:59;102809.59;;;-7.69;88.43
58622;BME280;44389;51.578;5.456;2024-01-10T06:11:25;102812.13;;;-7.87;88.93
58622;BME280;44389;51.578;5.456;2024-01-10T06:13:50;102814.19;;;-7.72;88.32
58622;BME280;44389;51.578;5.456;2024-01-10T06:16:15;102807.75;;;-7.70;87.74
58622;BME280;44389;51.578;5.456;2024-01-10T06:18:41;102803.34;;;-7.78;88.46
58622;BME280;44389;51.578;5.456;2024-01-10T06:21:07;102801.38;;;-7.68;89.59
58622;BME280;44389;51.578;5.456;2024-01-10T06:23:33;102799.47;;;-7.63;88.59
58622;BME280;44389;51.578;5.456;2024-01-10T06:25:58;102794.66;;;-7.74;89.46
58622;BME280;44389;51.578;5.456;2024-01-10T06:28:23;102797.34;;;-7.73;89.30
58622;BME280;44389;51.578;5.456;2024-01-10T06:30:49;102803.75;;;-7.75;89.84
58622;BME280;44389;51.578;5.456;2024-01-10T06:33:14;102801.81;;;-7.83;90.59
58622;BME280;44389;51.578;5.456;2024-01-10T06:35:41;102799.75;;;-7.67;90.44
58622;BME280;44389;51.578;5.456;2024-01-10T06:38:08;102793.34;;;-7.78;90.97
58622;BME280;44389;51.578;5.456;2024-01-10T06:40:34;102796.91;;;-7.76;90.89
58622;BME280;44389;51.578;5.456;2024-01-10T06:42:59;102803.19;;;-7.67;90.94
58622;BME280;44389;51.578;5.456;2024-01-10T06:45:26;102798.34;;;-7.78;90.55
58622;BME280;44389;51.578;5.456;2024-01-10T06:47:51;102792.94;;;-7.68;90.77
58622;BME280;44389;51.578;5.456;2024-01-10T06:50:16;102800.84;;;-7.78;91.27
58622;BME280;44389;51.578;5.456;2024-01-10T06:52:44;102799.56;;;-7.69;90.77
58622;BME280;44389;51.578;5.456;2024-01-10T06:55:09;102807.75;;;-7.70;90.80
58622;BME280;44389;51.578;5.456;2024-01-10T06:57:35;102812.81;;;-7.88;91.57
58622;BME280;44389;51.578;5.456;2024-01-10T07:00:00;102812.88;;;-7.75;91.40
58622;BME280;44389;51.578;5.456;2024-01-10T07:02:28;102807.53;;;-7.84;92.32
58622;BME280;44389;51.578;5.456;2024-01-10T07:04:53;102806.00;;;-7.89;92.98
58622;BME280;44389;51.578;5.456;2024-01-10T07:07:19;102810.59;;;-7.92;92.78
58622;BME280;44389;51.578;5.456;2024-01-10T07:09:44;102811.16;;;-7.82;92.94
58622;BME280;44389;51.578;5.456;2024-01-10T07:12:09;102822.94;;;-7.81;92.66
58622;BME280;44389;51.578;5.456;2024-01-10T07:14:34;102814.34;;;-7.83;92.52
58622;BME280;44389;51.578;5.456;2024-01-10T07:17:00;102808.91;;;-7.86;92.30
58622;BME280;44389;51.578;5.456;2024-01-10T07:19:25;102813.66;;;-8.01;93.25
58622;BME280;44389;51.578;5.456;2024-01-10T07:21:51;102831.59;;;-7.98;93.58
58622;BME280;44389;51.578;5.456;2024-01-10T07:24:16;102825.31;;;-7.88;93.60
58622;BME280;44389;51.578;5.456;2024-01-10T07:26:41;102824.09;;;-7.98;94.42
58622;BME280;44389;51.578;5.456;2024-01-10T07:29:06;102822.56;;;-8.03;94.80
58622;BME280;44389;51.578;5.456;2024-01-10T07:31:35;102819.88;;;-7.91;94.40
58622;BME280;44389;51.578;5.456;2024-01-10T07:34:00;102811.72;;;-8.09;95.60
58622;BME280;44389;51.578;5.456;2024-01-10T07:36:26;102803.53;;;-8.08;97.49
58622;BME280;44389;51.578;5.456;2024-01-10T07:38:59;102794.94;;;-7.97;97.54
58622;BME280;44389;51.578;5.456;2024-01-10T07:41:24;102802.25;;;-7.99;97.31
58622;BME280;44389;51.578;5.456;2024-01-10T07:43:50;102795.03;;;-8.03;97.88
58622;BME280;44389;51.578;5.456;2024-01-10T07:46:15;102797.84;;;-7.94;97.46
58622;BME280;44389;51.578;5.456;2024-01-10T07:48:40;102797.38;;;-7.91;97.06
58622;BME280;44389;51.578;5.456;2024-01-10T07:51:06;102796.66;;;-7.90;96.25
58622;BME280;44389;51.578;5.456;2024-01-10T07:53:32;102799.47;;;-7.95;96.99
58622;BME280;44389;51.578;5.456;2024-01-10T07:55:57;102798.50;;;-7.89;96.19
58622;BME280;44389;51.578;5.456;2024-01-10T07:58:22;102783.66;;;-7.88;95.77
58622;BME280;44389;51.578;5.456;2024-01-10T08:00:47;102795.69;;;-7.85;95.49
58622;BME280;44389;51.578;5.456;2024-01-10T08:03:13;102798.97;;;-7.92;95.34
58622;BME280;44389;51.578;5.456;2024-01-10T08:05:38;102798.28;;;-7.91;95.14
58622;BME280;44389;51.578;5.456;2024-01-10T08:08:04;102798.78;;;-7.94;95.67
58622;BME280;44389;51.578;5.456;2024-01-10T08:10:29;102809.53;;;-7.82;95.51
58622;BME280;44389;51.578;5.456;2024-01-10T08:12:54;102806.63;;;-7.85;94.56
58622;BME280;44389;51.578;5.456;2024-01-10T08:15:21;102803.53;;;-7.77;95.15
58622;BME280;44389;51.578;5.456;2024-01-10T08:17:47;102804.19;;;-7.72;95.51
58622;BME280;44389;51.578;5.456;2024-01-10T08:20:12;102813.06;;;-7.74;95.42
58622;BME280;44389;51.578;5.456;2024-01-10T08:22:40;102815.28;;;-7.70;94.81
58622;BME280;44389;51.578;5.456;2024-01-10T08:25:06;102817.78;;;-7.70;94.46
58622;BME280;44389;51.578;5.456;2024-01-10T08:27:32;102805.09;;;-7.58;94.28
58622;BME280;44389;51.578;5.456;2024-01-10T08:29:58;102809.47;;;-7.63;94.57
58622;BME280;44389;51.578;5.456;2024-01-10T08:32:24;102817.63;;;-7.58;93.98
58622;BME280;44389;51.578;5.456;2024-01-10T08:34:49;102819.97;;;-7.47;93.12
58622;BME280;44389;51.578;5.456;2024-01-10T08:37:14;102814.53;;;-7.50;93.49
58622;BME280;44389;51.578;5.456;2024-01-10T08:39:42;102816.19;;;-7.38;93.84
58622;BME280;44389;51.578;5.456;2024-01-10T08:42:08;102820.19;;;-7.33;92.61
58622;BME280;44389;51.578;5.456;2024-01-10T08:44:34;102810.47;;;-7.37;93.35
58622;BME280;44389;51.578;5.456;2024-01-10T08:47:00;102810.56;;;-7.30;92.92
58622;BME280;44389;51.578;5.456;2024-01-10T08:49:25;102812.09;;;-7.24;92.65
58622;BME280;44389;51.578;5.456;2024-01-10T08:51:51;102810.09;;;-7.14;92.64
58622;BME280;44389;51.578;5.456;2024-01-10T08:54:18;102818.13;;;-7.04;92.24
58622;BME280;44389;51.578;5.456;2024-01-10T08:56:48;102808.03;;;-6.98;91.15
58622;BME280;44389;51.578;5.456;2024-01-10T08:59:13;102813.81;;;-6.92;91.56
58622;BME280;44389;51.578;5.456;2024-01-10T09:01:38;102810.72;;;-6.97;89.72
58622;BME280;44389;51.578;5.456;2024-01-10T09:04:04;102812.63;;;-6.88;89.63
58622;BME280;44389;51.578;5.456;2024-01-10T09:06:31;102823.06;;;-6.85;88.94
58622;BME280;44389;51.578;5.456;2024-01-10T09:08:57;102826.34;;;-6.79;88.68
58622;BME280;44389;51.578;5.456;2024-01-10T09:11:22;102827.09;;;-6.67;88.78
58622;BME280;44389;51.578;5.456;2024-01-10T09:13:47;102822.25;;;-6.66;87.07
58622;BME280;44389;51.578;5.456;2024-01-10T09:16:13;102827.78;;;-6.55;87.05
58622;BME280;44389;51.578;5.456;2024-01-10T09:18:38;102826.75;;;-6.50;86.61
58622;BME280;44389;51.578;5.456;2024-01-10T09:21:05;102821.03;;;-6.36;86.08
58622;BME280;44389;51.578;5.456;2024-01-10T09:23:30;102828.53;;;-6.23;85.61
58622;BME280;44389;51.578;5.456;2024-01-10T09:25:55;102835.00;;;-6.05;85.88
58622;BME280;44389;51.578;5.456;2024-01-10T09:28:21;102832.44;;;-5.92;85.70
58622;BME280;44389;51.578;5.456;2024-01-10T09:30:46;102826.75;;;-5.84;84.74
58622;BME280;44389;51.578;5.456;2024-01-10T09:33:12;102832.44;;;-5.92;81.78
58622;BME280;44389;51.578;5.456;2024-01-10T09:35:37;102829.19;;;-5.91;80.93
58622;BME280;44389;51.578;5.456;2024-01-10T09:38:03;102834.09;;;-5.86;80.21
58622;BME280;44389;51.578;5.456;2024-01-10T09:40:28;102837.19;;;-5.81;79.39
58622;BME280;44389;51.578;5.456;2024-01-10T09:42:54;102844.44;;;-5.77;79.02
58622;BME280;44389;51.578;5.456;2024-01-10T09:45:21;102837.72;;;-5.64;79.35
58622;BME280;44389;51.578;5.456;2024-01-10T09:47:49;102842.38;;;-5.67;77.82
58622;BME280;44389;51.578;5.456;2024-01-10T09:50:15;102839.72;;;-5.61;78.24
58622;BME280;44389;51.578;5.456;2024-01-10T09:52:49;102840.69;;;-5.53;77.73
58622;BME280;44389;51.578;5.456;2024-01-10T09:55:15;102832.31;;;-5.47;77.77
58622;BME280;44389;51.578;5.456;2024-01-10T09:57:41;102844.28;;;-5.31;78.17
58622;BME280;44389;51.578;5.456;2024-01-10T10:00:10;102841.53;;;-5.20;76.89
58622;BME280;44389;51.578;5.456;2024-01-10T10:02:37;102843.44;;;-5.04;73.93
58622;BME280;44389;51.578;5.456;2024-01-10T10:05:04;102849.31;;;-4.84;78.32
58622;BME280;44389;51.578;5.456;2024-01-10T10:07:43;102844.97;;;-4.57;72.35
58622;BME280;44389;51.578;5.456;2024-01-10T10:10:09;102842.78;;;-4.27;72.96
58622;BME280;44389;51.578;5.456;2024-01-10T10:15:14;102837.31;;;-3.81;66.67
58622;BME280;44389;51.578;5.456;2024-01-10T10:17:40;102838.09;;;-3.60;64.33
58622;BME280;44389;51.578;5.456;2024-01-10T10:20:13;102835.56;;;-3.46;63.85
58622;BME280;44389;51.578;5.456;2024-01-10T10:22:39;102831.78;;;-3.28;64.10
58622;BME280;44389;51.578;5.456;2024-01-10T10:25:04;102829.63;;;-3.32;62.34
58622;BME280;44389;51.578;5.456;2024-01-10T10:27:30;102832.53;;;-3.36;62.52
58622;BME280;44389;51.578;5.456;2024-01-10T10:29:55;102828.03;;;-3.39;62.74
58622;BME280;44389;51.578;5.456;2024-01-10T10:32:21;102835.41;;;-3.40;62.22
58622;BME280;44389;51.578;5.456;2024-01-10T10:34:46;102829.44;;;-3.19;62.46
58622;BME280;44389;51.578;5.456;2024-01-10T10:37:11;102818.81;;;-3.38;62.02
58622;BME280;44389;51.578;5.456;2024-01-10T10:39:37;102817.41;;;-3.36;62.13
58622;BME280;44389;51.578;5.456;2024-01-10T10:42:03;102819.72;;;-3.23;62.43
58622;BME280;44389;51.578;5.456;2024-01-10T10:44:31;102813.22;;;-3.07;61.07
58622;BME280;44389;51.578;5.456;2024-01-10T10:47:04;102808.91;;;-3.08;61.15
58622;BME280;44389;51.578;5.456;2024-01-10T10:49:32;102816.44;;;-2.93;60.18
58622;BME280;44389;51.578;5.456;2024-01-10T10:51:59;102813.91;;;-2.86;59.57
58622;BME280;44389;51.578;5.456;2024-01-10T10:54:28;102823.09;;;-2.87;58.78
58622;BME280;44389;51.578;5.456;2024-01-10T10:56:57;102821.06;;;-2.60;58.93
58622;BME280;44389;51.578;5.456;2024-01-10T10:59:23;102815.50;;;-2.27;62.50
58622;BME280;44389;51.578;5.456;2024-01-10T11:01:48;102808.22;;;-2.10;57.72
58622;BME280;44389;51.578;5.456;2024-01-10T11:04:15;102804.53;;;-1.97;57.54
58622;BME280;44389;51.578;5.456;2024-01-10T11:06:40;102810.13;;;-1.70;56.20
58622;BME280;44389;51.578;5.456;2024-01-10T11:09:08;102812.66;;;-1.46;55.25
58622;BME280;44389;51.578;5.456;2024-01-10T11:11:55;102803.25;;;-1.24;54.79
58622;BME280;44389;51.578;5.456;2024-01-10T11:25:27;102802.00;;;-0.73;51.34
58622;BME280;44389;51.578;5.456;2024-01-10T11:27:55;102801.94;;;-0.65;51.42
58622;BME280;44389;51.578;5.456;2024-01-10T11:30:49;102792.63;;;-0.17;52.44
58622;BME280;44389;51.578;5.456;2024-01-10T11:33:22;102787.88;;;-0.39;49.52
58622;BME280;44389;51.578;5.456;2024-01-10T11:36:13;102783.03;;;-0.28;50.78
58622;BME280;44389;51.578;5.456;2024-01-10T11:38:48;102787.56;;;-0.17;50.62
58622;BME280;44389;51.578;5.456;2024-01-10T11:41:23;102785.78;;;0.31;54.72
58622;BME280;44389;51.578;5.456;2024-01-10T11:46:34;102780.34;;;-0.05;48.42
58622;BME280;44389;51.578;5.456;2024-01-10T11:49:00;102782.81;;;-0.14;49.40
58622;BME280;44389;51.578;5.456;2024-01-10T11:51:25;102776.81;;;-0.23;49.59
58622;BME280;44389;51.578;5.456;2024-01-10T11:53:51;102777.38;;;-0.42;49.61
58622;BME280;44389;51.578;5.456;2024-01-10T11:56:18;102782.16;;;-0.61;49.67
58622;BME280;44389;51.578;5.456;2024-01-10T11:58:53;102785.56;;;-0.76;50.77
58622;BME280;44389;51.578;5.456;2024-01-10T12:01:19;102781.81;;;-0.96;49.89
58622;BME280;44389;51.578;5.456;2024-01-10T12:03:46;102781.41;;;-1.08;51.33
58622;BME280;44389;51.578;5.456;2024-01-10T12:06:14;102774.94;;;-1.13;51.58
58622;BME280;44389;51.578;5.456;2024-01-10T12:08:39;102780.50;;;-0.76;53.90
58622;BME280;44389;51.578;5.456;2024-01-10T12:11:05;102772.47;;;-1.20;51.44
58622;BME280;44389;51.578;5.456;2024-01-10T12:13:30;102771.50;;;-1.29;51.33
58622;BME280;44389;51.578;5.456;2024-01-10T12:15:57;102762.19;;;-1.38;51.89
58622;BME280;44389;51.578;5.456;2024-01-10T12:18:23;102767.25;;;-1.38;51.96
58622;BME280;44389;51.578;5.456;2024-01-10T12:20:48;102766.53;;;-1.37;52.11
58622;BME280;44389;51.578;5.456;2024-01-10T12:23:13;102761.78;;;-1.34;52.02
58622;BME280;44389;51.578;5.456;2024-01-10T12:25:39;102761.94;;;-1.32;51.93
58622;BME280;44389;51.578;5.456;2024-01-10T12:28:04;102751.09;;;-1.31;51.78
58622;BME280;44389;51.578;5.456;2024-01-10T12:30:30;102756.00;;;-1.33;52.11
58622;BME280;44389;51.578;5.456;2024-01-10T12:32:59;102756.66;;;-1.26;53.10
58622;BME280;44389;51.578;5.456;2024-01-10T12:35:25;102756.25;;;-1.22;53.05
58622;BME280;44389;51.578;5.456;2024-01-10T12:37:54;102763.13;;;-1.21;52.09
58622;BME280;44389;51.578;5.456;2024-01-10T12:40:20;102753.78;;;-1.29;52.15
58622;BME280;44389;51.578;5.456;2024-01-10T12:42:47;102753.78;;;-1.29;52.58
58622;BME280;44389;51.578;5.456;2024-01-10T12:45:25;102757.56;;;-1.10;52.92
58622;BME280;44389;51.578;5.456;2024-01-10T12:47:52;102757.09;;;-0.98;54.30
58622;BME280;44389;51.578;5.456;2024-01-10T12:50:18;102758.41;;;-0.86;52.44
58622;BME280;44389;51.578;5.456;2024-01-10T12:52:44;102758.53;;;-0.69;52.06
58622;BME280;44389;51.578;5.456;2024-01-10T12:55:09;102764.09;;;-0.64;51.12
58622;BME280;44389;51.578;5.456;2024-01-10T12:57:35;102761.16;;;-0.44;50.96
58622;BME280;44389;51.578;5.456;2024-01-10T13:00:00;102761.69;;;-0.30;50.80